< < Back
Terminal Aerodrome Forecast


Current Version              Previous Versions:   1  2  3  4  5  6  7  8  9  

Terminal Aerodrome Forecast

885
FTUS42 KMLB 291500 AAA
TAFMCO
TAF AMD
KMCO 291500Z 2915/3012 VRB03KT P6SM SCT030
     FM292100 08008KT P6SM VCSH BKN060
     FM300100 11006KT P6SM FEW080 SCT250=

Latest METAR

073
SAUS70 KWBC 300058
MTRMCO
METAR KMCO 300053Z 09008KT 10SM TS FEW047CB SCT090 BKN210 26/21 A2997
RMK AO2 RAB20E47 SLP145 FRQ LTGICCC N AND DSNT W TS N AND CB
DSNT W STNRY P0000 T02610206


USA.gov is the U.S. government's official web portal to all federal, state and local government web resources and services.